createdAt,value
2022-08-29T00:01:08.805Z,2.92
2022-08-29T00:03:55.829Z,2.78
2022-08-29T00:06:41.300Z,2.63
2022-08-29T00:09:33.078Z,2.53
2022-08-29T00:12:21.720Z,2.45
2022-08-29T00:15:09.284Z,2.90
2022-08-29T00:17:54.489Z,2.50
2022-08-29T00:20:40.156Z,2.88
2022-08-29T00:23:25.579Z,2.55
2022-08-29T00:26:12.962Z,3.20
2022-08-29T00:28:58.528Z,2.63
2022-08-29T00:31:46.626Z,3.75
2022-08-29T00:34:31.901Z,2.80
2022-08-29T00:37:17.215Z,2.85
2022-08-29T00:40:04.910Z,3.10
2022-08-29T00:42:50.551Z,2.88
2022-08-29T00:45:40.797Z,3.30
2022-08-29T00:48:26.511Z,3.20
2022-08-29T00:51:17.206Z,2.50
2022-08-29T00:54:06.595Z,3.10
2022-08-29T00:56:53.684Z,3.00
2022-08-29T00:59:43.576Z,3.10
2022-08-29T01:02:29.424Z,3.10
2022-08-29T01:05:20.025Z,3.47
2022-08-29T01:08:07.268Z,2.97
2022-08-29T01:11:10.909Z,3.97
2022-08-29T01:13:59.763Z,3.30
2022-08-29T01:16:47.071Z,3.30
2022-08-29T01:19:50.908Z,3.05
2022-08-29T01:23:12.391Z,3.08
2022-08-29T01:26:00.040Z,2.95
2022-08-29T01:28:53.407Z,3.20
2022-08-29T01:31:56.281Z,3.13
2022-08-29T01:34:43.642Z,3.38
2022-08-29T01:37:31.644Z,4.03
2022-08-29T01:40:17.455Z,3.47
2022-08-29T01:43:03.110Z,3.58
2022-08-29T01:45:49.003Z,3.35
2022-08-29T01:48:39.267Z,3.50
2022-08-29T01:51:25.639Z,3.25
2022-08-29T01:54:11.996Z,4.13
2022-08-29T01:56:57.771Z,4.05
2022-08-29T01:59:44.000Z,3.63
2022-08-29T02:02:30.227Z,3.70
2022-08-29T02:05:15.749Z,3.83
2022-08-29T02:08:01.196Z,3.80
2022-08-29T02:10:48.139Z,4.30
2022-08-29T02:13:33.583Z,4.07
2022-08-29T02:16:19.636Z,4.40
2022-08-29T02:19:04.882Z,3.75
2022-08-29T02:21:50.364Z,3.63
2022-08-29T02:24:37.352Z,3.80
2022-08-29T02:27:23.118Z,3.55
2022-08-29T02:30:08.465Z,4.00
2022-08-29T02:32:54.844Z,4.00
2022-08-29T02:35:42.917Z,4.13
2022-08-29T02:38:28.863Z,4.10
2022-08-29T02:41:15.229Z,3.85
2022-08-29T02:44:00.601Z,5.00
2022-08-29T02:46:48.479Z,4.25
2022-08-29T02:49:34.531Z,4.30
2022-08-29T02:52:21.031Z,4.03
2022-08-29T02:55:08.376Z,4.50
2022-08-29T02:57:54.172Z,3.72
2022-08-29T03:00:40.445Z,4.70
2022-08-29T03:03:29.393Z,4.45
2022-08-29T03:06:14.860Z,4.85
2022-08-29T03:09:01.284Z,4.63
2022-08-29T03:11:46.791Z,4.88
2022-08-29T03:14:32.377Z,4.72
2022-08-29T03:17:17.777Z,4.55
2022-08-29T03:20:05.410Z,5.03
2022-08-29T03:22:51.431Z,5.00
2022-08-29T03:25:40.604Z,4.60
2022-08-29T03:28:27.108Z,4.63
2022-08-29T03:31:12.667Z,4.60
2022-08-29T03:33:57.787Z,4.85
2022-08-29T03:36:43.286Z,4.28
2022-08-29T03:39:29.604Z,5.07
2022-08-29T03:42:15.090Z,5.05
2022-08-29T03:45:04.334Z,5.32
2022-08-29T03:47:52.201Z,5.90
2022-08-29T03:50:37.588Z,4.72
2022-08-29T03:53:22.981Z,5.50
2022-08-29T03:56:10.777Z,5.80
2022-08-29T03:59:06.985Z,5.43
2022-08-29T04:01:52.441Z,5.47
2022-08-29T04:04:56.202Z,5.90
2022-08-29T04:07:57.941Z,6.05
2022-08-29T04:10:43.185Z,6.07
2022-08-29T04:13:28.718Z,6.20
2022-08-29T04:16:17.288Z,6.10
2022-08-29T04:19:02.888Z,6.10
2022-08-29T04:21:49.208Z,6.28
2022-08-29T04:24:35.605Z,6.53
2022-08-29T04:27:23.045Z,6.72
2022-08-29T04:30:13.651Z,6.18
2022-08-29T04:32:59.888Z,5.88
2022-08-29T04:35:45.557Z,5.38
2022-08-29T04:38:30.920Z,5.45
2022-08-29T04:41:16.935Z,5.35
2022-08-29T04:44:03.829Z,5.40
2022-08-29T04:46:49.388Z,5.38
2022-08-29T04:49:35.838Z,5.10
2022-08-29T04:52:21.675Z,4.40
2022-08-29T04:55:09.411Z,4.20
2022-08-29T04:57:56.499Z,4.05
2022-08-29T05:00:42.751Z,5.60
2022-08-29T05:03:29.682Z,4.40
2022-08-29T05:06:18.349Z,4.50
2022-08-29T05:09:06.178Z,4.07
2022-08-29T05:11:51.790Z,4.75
2022-08-29T05:14:37.378Z,5.18
2022-08-29T05:17:23.606Z,4.68
2022-08-29T05:20:09.721Z,4.72
2022-08-29T05:22:58.693Z,4.65
2022-08-29T05:25:45.270Z,3.95
2022-08-29T05:28:32.640Z,5.10
2022-08-29T05:31:18.975Z,4.55
2022-08-29T05:34:34.177Z,3.65
2022-08-29T05:37:21.089Z,4.32
2022-08-29T05:40:08.238Z,3.78
2022-08-29T05:42:56.591Z,4.70
2022-08-29T05:45:42.799Z,4.85
2022-08-29T05:48:28.136Z,4.18
2022-08-29T05:51:19.376Z,4.78
2022-08-29T05:54:05.358Z,4.28
2022-08-29T05:56:51.449Z,4.80
2022-08-29T05:59:39.500Z,4.65
2022-08-29T06:02:25.278Z,5.05
2022-08-29T06:05:11.515Z,5.75
2022-08-29T06:07:57.168Z,4.60
2022-08-29T06:10:44.974Z,5.38
2022-08-29T06:13:33.172Z,4.68
2022-08-29T06:16:21.154Z,4.72
2022-08-29T06:19:09.662Z,4.55
2022-08-29T06:21:56.259Z,5.65
2022-08-29T06:24:44.492Z,5.25
2022-08-29T06:27:30.461Z,5.05
2022-08-29T06:30:16.096Z,5.47
2022-08-29T06:33:02.192Z,5.18
2022-08-29T06:35:50.583Z,5.07
2022-08-29T06:38:36.255Z,5.10
2022-08-29T06:41:21.816Z,4.63
2022-08-29T06:44:08.412Z,4.72
2022-08-29T06:46:54.131Z,4.47
2022-08-29T06:49:39.610Z,4.93
2022-08-29T06:52:26.892Z,4.38
2022-08-29T06:55:15.647Z,4.72
2022-08-29T06:58:04.199Z,3.78
2022-08-29T07:00:50.162Z,4.47
2022-08-29T07:03:35.708Z,4.13
2022-08-29T07:06:21.275Z,4.50
2022-08-29T07:09:08.014Z,4.55
2022-08-29T07:12:18.226Z,4.32
2022-08-29T07:15:04.441Z,4.45
2022-08-29T07:17:50.356Z,4.13
2022-08-29T07:20:37.788Z,3.70
2022-08-29T07:23:23.217Z,3.95
2022-08-29T07:26:13.171Z,4.10
2022-08-29T07:29:04.116Z,4.07
2022-08-29T07:31:49.876Z,4.80
2022-08-29T07:34:36.588Z,4.25
2022-08-29T07:37:22.114Z,4.28
2022-08-29T07:40:12.658Z,4.15
2022-08-29T07:42:58.477Z,3.97
2022-08-29T07:45:44.171Z,4.57
2022-08-29T07:48:30.534Z,4.10
2022-08-29T07:51:20.126Z,3.63
2022-08-29T07:54:06.615Z,4.22
2022-08-29T07:56:53.533Z,4.38
2022-08-29T07:59:38.990Z,3.88
2022-08-29T08:02:25.659Z,4.35
2022-08-29T08:05:10.773Z,3.88
2022-08-29T08:07:56.358Z,3.78
2022-08-29T08:10:42.674Z,4.05
2022-08-29T08:13:28.661Z,4.50
2022-08-29T08:16:17.120Z,4.05
2022-08-29T08:19:06.186Z,3.85
2022-08-29T08:21:52.035Z,3.83
2022-08-29T08:24:37.247Z,4.20
2022-08-29T08:27:22.800Z,3.97
2022-08-29T08:30:09.028Z,3.88
2022-08-29T08:32:55.117Z,3.97
2022-08-29T08:35:42.289Z,3.47
2022-08-29T08:38:27.889Z,3.80
2022-08-29T08:41:27.076Z,4.13
2022-08-29T08:44:22.284Z,3.80
2022-08-29T08:47:11.592Z,3.38
2022-08-29T08:50:23.337Z,3.95
2022-08-29T08:53:20.026Z,3.42
2022-08-29T08:56:25.838Z,4.28
2022-08-29T09:02:18.357Z,3.92
2022-08-29T09:05:37.267Z,4.18
2022-08-29T09:08:57.551Z,3.92
2022-08-29T09:11:59.249Z,4.28
2022-08-29T09:15:07.435Z,4.47
2022-08-29T09:18:07.224Z,3.83
2022-08-29T09:20:54.326Z,3.97
2022-08-29T09:23:48.045Z,3.60
2022-08-29T09:26:34.934Z,4.10
2022-08-29T09:29:26.979Z,4.15
2022-08-29T09:32:17.718Z,3.80
2022-08-29T09:35:24.454Z,4.25
2022-08-29T09:38:18.575Z,4.43
2022-08-29T09:41:15.228Z,3.53
2022-08-29T09:44:00.540Z,3.88
2022-08-29T09:47:03.955Z,3.90
2022-08-29T09:50:07.933Z,4.00
2022-08-29T09:53:03.281Z,3.90
2022-08-29T09:55:54.187Z,3.70
2022-08-29T09:58:42.876Z,4.00
2022-08-29T10:01:29.785Z,3.60
2022-08-29T10:04:36.876Z,3.80
2022-08-29T10:07:33.746Z,4.28
2022-08-29T10:10:25.948Z,3.47
2022-08-29T10:13:19.606Z,4.15
2022-08-29T10:16:28.655Z,3.60
2022-08-29T10:19:27.191Z,3.78
2022-08-29T10:22:44.140Z,3.55
2022-08-29T10:25:37.372Z,4.07
2022-08-29T10:28:32.892Z,3.90
2022-08-29T10:34:53.964Z,3.50
2022-08-29T10:38:07.768Z,3.20
2022-08-29T10:41:09.659Z,3.53
2022-08-29T10:44:36.583Z,3.72
2022-08-29T10:47:56.792Z,3.97
2022-08-29T10:51:17.430Z,3.03
2022-08-29T10:54:29.712Z,3.50
2022-08-29T10:57:34.223Z,3.33
2022-08-29T11:00:24.389Z,3.33
2022-08-29T11:03:36.437Z,3.22
2022-08-29T11:09:28.578Z,3.70
2022-08-29T11:12:22.280Z,3.80
2022-08-29T11:15:29.179Z,3.58
2022-08-29T11:18:29.019Z,3.65
2022-08-29T11:21:36.497Z,3.80
2022-08-29T11:24:23.679Z,3.63
2022-08-29T11:27:29.046Z,3.20
2022-08-29T11:33:13.166Z,3.83
2022-08-29T11:36:19.222Z,3.75
2022-08-29T11:39:11.160Z,4.13
2022-08-29T11:42:03.139Z,3.80
2022-08-29T11:44:55.182Z,3.38
2022-08-29T11:47:57.380Z,3.67
2022-08-29T11:50:44.858Z,3.47
2022-08-29T11:53:37.202Z,3.17
2022-08-29T11:56:27.766Z,3.17
2022-08-29T11:59:51.616Z,3.75
2022-08-29T12:02:38.172Z,3.25
2022-08-29T12:05:29.980Z,3.45
2022-08-29T12:08:37.329Z,2.88
2022-08-29T12:11:44.964Z,3.38
2022-08-29T12:14:38.046Z,3.10
2022-08-29T12:17:24.668Z,3.70
2022-08-29T12:20:34.096Z,3.60
2022-08-29T12:23:35.809Z,3.30
2022-08-29T12:26:44.115Z,3.35
2022-08-29T12:29:44.455Z,3.70
2022-08-29T12:32:48.403Z,3.42
2022-08-29T12:36:02.364Z,3.30
2022-08-29T12:39:21.743Z,3.45
2022-08-29T12:42:19.800Z,3.42
2022-08-29T12:45:27.813Z,4.20
2022-08-29T12:48:35.932Z,3.78
2022-08-29T12:51:33.087Z,3.40
2022-08-29T12:54:31.410Z,4.03
2022-08-29T12:57:21.445Z,3.67
2022-08-29T13:00:13.688Z,3.50
2022-08-29T13:03:15.018Z,3.42
2022-08-29T13:06:08.836Z,3.78
2022-08-29T13:11:41.588Z,3.13
2022-08-29T13:14:27.745Z,3.58
2022-08-29T13:17:20.270Z,3.22
2022-08-29T13:20:43.376Z,3.30
2022-08-29T13:23:31.836Z,3.28
2022-08-29T13:26:20.091Z,3.42
2022-08-29T13:29:52.876Z,3.13
2022-08-29T13:32:50.048Z,3.58
2022-08-29T13:36:00.115Z,3.22
2022-08-29T13:38:45.821Z,3.10
2022-08-29T13:41:31.240Z,3.65
2022-08-29T13:44:25.808Z,3.72
2022-08-29T13:47:30.629Z,2.92
2022-08-29T13:50:16.384Z,3.22
2022-08-29T13:53:02.201Z,3.55
2022-08-29T13:55:47.704Z,3.47
2022-08-29T13:58:34.535Z,2.83
2022-08-29T14:01:30.364Z,3.53
2022-08-29T14:07:28.172Z,3.53
2022-08-29T14:10:16.010Z,3.17
2022-08-29T14:13:01.408Z,3.15
2022-08-29T14:15:46.978Z,2.85
2022-08-29T14:18:33.227Z,2.95
2022-08-29T14:21:20.158Z,3.03
2022-08-29T14:24:05.814Z,3.92
2022-08-29T14:27:01.634Z,2.90
2022-08-29T14:29:48.520Z,2.63
2022-08-29T14:32:34.626Z,2.75
2022-08-29T14:35:27.616Z,2.70
2022-08-29T14:38:18.050Z,2.78
2022-08-29T14:41:03.700Z,2.55
2022-08-29T14:43:49.161Z,2.70
2022-08-29T14:46:35.173Z,2.88
2022-08-29T14:49:20.777Z,2.50
2022-08-29T14:52:07.173Z,2.55
2022-08-29T14:54:52.714Z,2.75
2022-08-29T14:57:38.222Z,2.60
2022-08-29T15:00:27.702Z,2.42
2022-08-29T15:03:14.189Z,2.28
2022-08-29T15:05:59.855Z,2.22
2022-08-29T15:08:45.307Z,2.10
2022-08-29T15:11:31.361Z,2.60
2022-08-29T15:14:16.938Z,2.58
2022-08-29T15:17:04.103Z,2.00
2022-08-29T15:22:57.012Z,2.42
2022-08-29T15:25:45.104Z,2.53
2022-08-29T15:28:37.762Z,2.30
2022-08-29T15:31:23.400Z,2.25
2022-08-29T15:34:11.503Z,2.40
2022-08-29T15:37:01.465Z,2.20
2022-08-29T15:39:46.809Z,2.30
2022-08-29T15:42:34.214Z,2.40
2022-08-29T15:45:24.006Z,2.50
2022-08-29T15:48:11.536Z,2.28
2022-08-29T15:50:57.554Z,2.15
2022-08-29T15:53:43.190Z,2.70
2022-08-29T15:56:35.074Z,2.05
2022-08-29T15:59:41.170Z,1.85
2022-08-29T16:02:29.156Z,2.10
2022-08-29T16:05:14.560Z,2.05
2022-08-29T16:08:00.840Z,2.03
2022-08-29T16:10:48.817Z,2.00
2022-08-29T16:13:34.300Z,2.08
2022-08-29T16:16:22.551Z,2.03
2022-08-29T16:19:08.033Z,1.80
2022-08-29T16:21:59.108Z,2.22
2022-08-29T16:24:47.719Z,2.00
2022-08-29T16:27:36.642Z,2.05
2022-08-29T16:30:24.335Z,2.50
2022-08-29T16:33:09.685Z,2.17
2022-08-29T16:35:55.332Z,2.30
2022-08-29T16:38:41.401Z,2.35
2022-08-29T16:41:28.241Z,2.15
2022-08-29T16:44:13.873Z,2.22
2022-08-29T16:46:59.570Z,1.80
2022-08-29T16:49:46.383Z,2.03
2022-08-29T16:52:31.931Z,2.00
2022-08-29T16:55:17.124Z,2.35
2022-08-29T16:58:22.646Z,2.03
2022-08-29T17:01:08.845Z,1.98
2022-08-29T17:03:54.660Z,1.80
2022-08-29T17:06:43.263Z,1.95
2022-08-29T17:09:31.678Z,2.58
2022-08-29T17:12:17.055Z,1.63
2022-08-29T17:15:02.568Z,2.20
2022-08-29T17:17:47.908Z,1.95
2022-08-29T17:20:37.452Z,1.90
2022-08-29T17:23:23.331Z,2.25
2022-08-29T17:26:13.333Z,2.15
2022-08-29T17:28:58.862Z,1.98
2022-08-29T17:31:44.590Z,2.05
2022-08-29T17:34:29.873Z,2.28
2022-08-29T17:37:17.224Z,2.50
2022-08-29T17:40:12.490Z,1.95
2022-08-29T17:43:00.441Z,1.85
2022-08-29T17:45:47.560Z,2.40
2022-08-29T17:48:33.996Z,2.65
2022-08-29T17:51:19.806Z,2.08
2022-08-29T17:54:14.878Z,1.90
2022-08-29T17:57:04.767Z,2.17
2022-08-29T17:59:53.233Z,2.47
2022-08-29T18:02:38.597Z,2.70
2022-08-29T18:05:24.383Z,2.10
2022-08-29T18:08:09.879Z,3.10
2022-08-29T18:10:57.794Z,2.70
2022-08-29T18:13:43.834Z,3.05
2022-08-29T18:16:29.167Z,2.88
2022-08-29T18:19:18.100Z,3.13
2022-08-29T18:22:04.006Z,2.90
2022-08-29T18:24:49.837Z,3.20
2022-08-29T18:27:35.420Z,2.92
2022-08-29T18:30:21.219Z,3.50
2022-08-29T18:33:11.033Z,3.45
2022-08-29T18:35:56.723Z,3.67
2022-08-29T18:38:41.909Z,3.97
2022-08-29T18:41:31.515Z,3.70
2022-08-29T18:44:19.752Z,4.25
2022-08-29T18:47:11.438Z,4.40
2022-08-29T18:50:18.665Z,4.32
2022-08-29T18:53:20.854Z,4.13
2022-08-29T18:56:06.792Z,4.30
2022-08-29T18:58:54.715Z,4.30
2022-08-29T19:01:44.601Z,4.07
2022-08-29T19:04:30.375Z,5.18
2022-08-29T19:07:16.023Z,4.35
2022-08-29T19:10:11.560Z,4.77
2022-08-29T19:12:58.343Z,4.28
2022-08-29T19:15:48.448Z,4.57
2022-08-29T19:18:35.891Z,4.78
2022-08-29T19:21:22.689Z,4.78
2022-08-29T19:24:11.472Z,4.80
2022-08-29T19:26:57.949Z,4.80
2022-08-29T19:29:44.279Z,4.68
2022-08-29T19:32:34.521Z,4.85
2022-08-29T19:35:21.702Z,5.00
2022-08-29T19:38:07.716Z,4.30
2022-08-29T19:40:55.811Z,4.93
2022-08-29T19:43:44.160Z,4.63
2022-08-29T19:46:29.814Z,4.72
2022-08-29T19:49:15.575Z,5.10
2022-08-29T19:52:02.429Z,4.75
2022-08-29T19:54:50.956Z,4.63
2022-08-29T19:57:37.935Z,4.82
2022-08-29T20:00:25.583Z,4.65
2022-08-29T20:03:11.164Z,5.25
2022-08-29T20:05:57.140Z,4.35
2022-08-29T20:08:47.556Z,5.00
2022-08-29T20:11:33.377Z,4.97
2022-08-29T20:14:31.809Z,4.85
2022-08-29T20:17:20.141Z,5.43
2022-08-29T20:20:19.485Z,4.97
2022-08-29T20:23:08.145Z,5.22
2022-08-29T20:25:55.905Z,4.43
2022-08-29T20:28:42.496Z,5.00
2022-08-29T20:31:28.600Z,4.63
2022-08-29T20:34:14.628Z,4.60
2022-08-29T20:37:09.660Z,4.90
2022-08-29T20:39:56.166Z,5.03
2022-08-29T20:42:42.150Z,4.80
2022-08-29T20:45:29.450Z,4.47
2022-08-29T20:48:17.351Z,4.30
2022-08-29T20:51:05.728Z,5.10
2022-08-29T20:53:51.412Z,4.05
2022-08-29T20:56:36.892Z,4.78
2022-08-29T20:59:26.548Z,4.70
2022-08-29T21:02:13.882Z,4.40
2022-08-29T21:05:18.127Z,4.38
2022-08-29T21:08:05.877Z,4.50
2022-08-29T21:10:55.126Z,5.05
2022-08-29T21:13:41.684Z,4.57
2022-08-29T21:16:28.758Z,4.25
2022-08-29T21:19:14.361Z,4.38
2022-08-29T21:22:02.164Z,4.47
2022-08-29T21:24:48.028Z,5.20
2022-08-29T21:27:33.429Z,4.68
2022-08-29T21:30:19.326Z,4.88
2022-08-29T21:33:07.156Z,4.72
2022-08-29T21:35:53.798Z,5.00
2022-08-29T21:38:39.522Z,5.82
2022-08-29T21:41:29.088Z,4.72
2022-08-29T21:44:15.359Z,4.40
2022-08-29T21:47:00.785Z,3.97
2022-08-29T21:49:48.415Z,5.07
2022-08-29T21:52:34.701Z,4.22
2022-08-29T21:55:23.023Z,4.10
2022-08-29T21:58:09.037Z,4.40
2022-08-29T22:00:54.592Z,4.38
2022-08-29T22:03:40.912Z,4.60
2022-08-29T22:06:27.698Z,3.95
2022-08-29T22:09:16.811Z,5.05
2022-08-29T22:12:05.252Z,4.70
2022-08-29T22:15:12.294Z,4.32
2022-08-29T22:17:58.874Z,4.38
2022-08-29T22:20:54.884Z,5.43
2022-08-29T22:23:41.128Z,5.25
2022-08-29T22:26:26.501Z,5.60
2022-08-29T22:29:14.039Z,4.57
2022-08-29T22:32:00.705Z,4.72
2022-08-29T22:34:46.085Z,4.20
2022-08-29T22:37:35.903Z,4.80
2022-08-29T22:40:23.885Z,4.13
2022-08-29T22:43:09.503Z,4.07
2022-08-29T22:45:55.342Z,4.55
2022-08-29T22:48:41.798Z,4.07
2022-08-29T22:51:28.807Z,4.15
2022-08-29T22:54:32.888Z,3.97
2022-08-29T22:57:19.598Z,3.88
2022-08-29T23:00:05.992Z,4.10
2022-08-29T23:02:53.210Z,4.05
2022-08-29T23:05:38.417Z,4.38
2022-08-29T23:08:23.907Z,4.22
2022-08-29T23:11:11.088Z,4.35
2022-08-29T23:13:58.557Z,4.03
2022-08-29T23:16:44.384Z,4.30
2022-08-29T23:19:35.320Z,4.30
2022-08-29T23:22:23.453Z,4.20
2022-08-29T23:25:09.643Z,3.92
2022-08-29T23:27:55.521Z,4.00
2022-08-29T23:30:41.306Z,3.80
2022-08-29T23:33:26.555Z,3.90
2022-08-29T23:36:12.402Z,5.15
2022-08-29T23:38:57.487Z,4.07
2022-08-29T23:41:49.040Z,4.28
2022-08-29T23:44:36.079Z,4.47
2022-08-29T23:47:21.277Z,3.75
2022-08-29T23:50:07.302Z,4.03
2022-08-29T23:52:53.032Z,4.75
2022-08-29T23:55:40.377Z,4.15
2022-08-29T23:58:25.712Z,4.78
